createdAt,value
2022-08-19T00:01:30.793Z,86.60
2022-08-19T00:03:59.626Z,86.50
2022-08-19T00:06:28.139Z,86.60
2022-08-19T00:08:55.075Z,86.50
2022-08-19T00:11:25.971Z,86.50
2022-08-19T00:13:53.374Z,86.50
2022-08-19T00:16:26.536Z,86.50
2022-08-19T00:18:57.160Z,86.40
2022-08-19T00:21:25.218Z,86.50
2022-08-19T00:23:52.856Z,86.50
2022-08-19T00:26:20.130Z,86.50
2022-08-19T00:28:48.081Z,86.50
2022-08-19T00:31:14.900Z,86.50
2022-08-19T00:33:41.707Z,86.40
2022-08-19T00:36:09.671Z,86.40
2022-08-19T00:38:38.383Z,86.50
2022-08-19T00:41:08.584Z,86.60
2022-08-19T00:43:35.487Z,86.80
2022-08-19T00:46:05.772Z,86.90
2022-08-19T00:48:34.518Z,87.00
2022-08-19T00:51:02.150Z,87.30
2022-08-19T00:53:32.907Z,87.40
2022-08-19T00:56:01.336Z,87.50
2022-08-19T00:58:31.463Z,87.50
2022-08-19T01:00:58.397Z,87.80
2022-08-19T01:03:25.221Z,87.80
2022-08-19T01:05:53.469Z,88.00
2022-08-19T01:08:20.924Z,88.30
2022-08-19T01:10:51.377Z,88.30
2022-08-19T01:13:23.252Z,88.40
2022-08-19T01:15:54.941Z,88.50
2022-08-19T01:18:22.027Z,88.60
2022-08-19T01:20:49.431Z,88.70
2022-08-19T01:23:16.427Z,88.80
2022-08-19T01:25:47.277Z,88.80
2022-08-19T01:28:33.894Z,89.00
2022-08-19T01:31:01.404Z,89.20
2022-08-19T01:33:35.173Z,89.40
2022-08-19T01:36:11.652Z,89.60
2022-08-19T01:38:44.268Z,89.90
2022-08-19T01:41:13.356Z,89.90
2022-08-19T01:44:17.061Z,90.00
2022-08-19T01:46:27.257Z,90.00
2022-08-19T01:48:53.960Z,90.20
2022-08-19T01:51:20.854Z,90.20
2022-08-19T01:53:52.161Z,90.30
2022-08-19T01:56:20.004Z,90.30
2022-08-19T01:58:55.495Z,90.30
2022-08-19T02:01:22.500Z,90.40
2022-08-19T02:03:49.333Z,90.30
2022-08-19T02:06:17.994Z,90.40
2022-08-19T02:08:47.116Z,90.50
2022-08-19T02:11:28.055Z,90.60
2022-08-19T02:13:55.758Z,90.70
2022-08-19T02:16:23.054Z,90.70
2022-08-19T02:18:50.007Z,90.80
2022-08-19T02:21:18.617Z,90.80
2022-08-19T02:23:46.390Z,90.90
2022-08-19T02:26:13.955Z,91.00
2022-08-19T02:28:42.168Z,91.00
2022-08-19T02:31:18.709Z,91.20
2022-08-19T02:33:46.302Z,91.30
2022-08-19T02:36:14.178Z,91.40
2022-08-19T02:38:43.423Z,91.40
2022-08-19T02:41:26.629Z,91.50
2022-08-19T02:44:28.584Z,91.60
2022-08-19T02:46:42.100Z,91.70
2022-08-19T02:49:09.098Z,91.80
2022-08-19T02:51:42.852Z,91.80
2022-08-19T02:54:11.025Z,91.90
2022-08-19T02:56:39.313Z,92.10
2022-08-19T02:59:09.204Z,92.30
2022-08-19T03:01:38.692Z,92.30
2022-08-19T03:04:06.821Z,92.50
2022-08-19T03:06:36.966Z,92.60
2022-08-19T03:09:04.125Z,92.60
2022-08-19T03:11:32.897Z,92.70
2022-08-19T03:14:01.213Z,92.80
2022-08-19T03:16:29.882Z,92.70
2022-08-19T03:19:01.084Z,92.80
2022-08-19T03:21:30.345Z,92.90
2022-08-19T03:23:59.004Z,93.00
2022-08-19T03:26:25.885Z,93.20
2022-08-19T03:28:58.584Z,93.20
2022-08-19T03:31:44.283Z,93.30
2022-08-19T03:34:16.546Z,93.30
2022-08-19T03:36:43.444Z,93.40
2022-08-19T03:39:11.321Z,93.40
2022-08-19T03:41:45.060Z,93.50
2022-08-19T03:44:16.783Z,93.60
2022-08-19T03:46:46.780Z,93.60
2022-08-19T03:49:14.361Z,93.60
2022-08-19T03:51:42.711Z,93.70
2022-08-19T03:54:13.785Z,93.80
2022-08-19T03:56:41.728Z,93.80
2022-08-19T03:59:10.235Z,93.90
2022-08-19T04:01:37.074Z,93.90
2022-08-19T04:04:04.807Z,94.00
2022-08-19T04:06:38.859Z,94.10
2022-08-19T04:09:09.599Z,94.10
2022-08-19T04:11:55.016Z,94.10
2022-08-19T04:14:24.953Z,94.30
2022-08-19T04:16:52.889Z,94.20
2022-08-19T04:19:21.151Z,94.30
2022-08-19T04:21:51.283Z,94.50
2022-08-19T04:24:19.283Z,94.50
2022-08-19T04:26:47.060Z,94.50
2022-08-19T04:29:17.357Z,94.80
2022-08-19T04:31:46.052Z,94.80
2022-08-19T04:34:14.699Z,94.90
2022-08-19T04:36:43.163Z,95.00
2022-08-19T04:39:13.856Z,95.00
2022-08-19T04:41:59.311Z,95.10
2022-08-19T04:44:26.663Z,95.00
2022-08-19T04:46:53.796Z,95.10
2022-08-19T04:49:23.270Z,95.30
2022-08-19T04:51:52.284Z,95.30
2022-08-19T04:54:37.353Z,95.40
2022-08-19T04:57:10.628Z,95.40
2022-08-19T04:59:39.163Z,95.50
2022-08-19T05:02:06.449Z,95.50
2022-08-19T05:04:33.857Z,95.50
2022-08-19T05:07:02.291Z,95.50
2022-08-19T05:09:52.533Z,95.40
2022-08-19T05:12:17.333Z,95.50
2022-08-19T05:14:45.921Z,95.50
2022-08-19T05:17:27.084Z,95.50
2022-08-19T05:20:14.656Z,95.50
2022-08-19T05:22:42.368Z,95.50
2022-08-19T05:25:14.876Z,95.50
2022-08-19T05:27:42.513Z,95.50
2022-08-19T05:30:10.165Z,95.70
2022-08-19T05:32:37.088Z,95.70
2022-08-19T05:35:05.274Z,95.70
2022-08-19T05:37:32.234Z,95.80
2022-08-19T05:39:59.074Z,95.80
2022-08-19T05:42:27.495Z,95.70
2022-08-19T05:44:54.574Z,95.80
2022-08-19T05:47:21.674Z,95.80
2022-08-19T05:49:50.691Z,95.80
2022-08-19T05:52:18.842Z,95.70
2022-08-19T05:54:50.867Z,95.70
2022-08-19T05:57:19.373Z,95.60
2022-08-19T05:59:53.299Z,95.60
2022-08-19T06:02:29.287Z,95.60
2022-08-19T06:04:56.082Z,95.50
2022-08-19T06:07:23.027Z,95.50
2022-08-19T06:10:00.125Z,95.50
2022-08-19T06:12:35.449Z,95.50
2022-08-19T06:15:04.524Z,95.50
2022-08-19T06:17:32.272Z,95.40
2022-08-19T06:20:00.027Z,95.30
2022-08-19T06:22:27.603Z,95.30
2022-08-19T06:24:55.540Z,95.30
2022-08-19T06:27:22.874Z,95.30
2022-08-19T06:29:49.814Z,95.30
2022-08-19T06:32:19.272Z,95.50
2022-08-19T06:34:46.197Z,95.10
2022-08-19T06:37:13.558Z,95.10
2022-08-19T06:39:42.618Z,95.00
2022-08-19T06:42:12.857Z,94.90
2022-08-19T06:44:42.476Z,94.80
2022-08-19T06:47:14.968Z,94.50
2022-08-19T06:49:50.825Z,94.50
2022-08-19T06:52:18.742Z,94.40
2022-08-19T06:54:56.115Z,94.10
2022-08-19T06:57:24.954Z,94.20
2022-08-19T06:59:52.439Z,94.10
2022-08-19T07:02:19.925Z,94.10
2022-08-19T07:04:46.748Z,94.00
2022-08-19T07:07:20.203Z,94.10
2022-08-19T07:09:57.940Z,94.40
2022-08-19T07:12:36.197Z,94.20
2022-08-19T07:15:06.339Z,94.10
2022-08-19T07:17:34.466Z,94.10
2022-08-19T07:20:05.366Z,94.00
2022-08-19T07:22:35.034Z,93.80
2022-08-19T07:25:03.907Z,93.70
2022-08-19T07:27:31.273Z,93.60
2022-08-19T07:30:00.877Z,93.70
2022-08-19T07:32:27.980Z,93.70
2022-08-19T07:34:56.376Z,93.80
2022-08-19T07:37:32.029Z,93.80
2022-08-19T07:39:59.955Z,93.90
2022-08-19T07:42:27.584Z,93.80
2022-08-19T07:44:54.377Z,93.70
2022-08-19T07:47:49.207Z,93.50
2022-08-19T07:50:10.103Z,93.50
2022-08-19T07:52:39.531Z,93.20
2022-08-19T07:55:40.082Z,92.90
2022-08-19T07:57:58.814Z,92.70
2022-08-19T08:00:26.127Z,92.90
2022-08-19T08:02:55.356Z,92.90
2022-08-19T08:05:43.669Z,92.90
2022-08-19T08:08:27.515Z,92.90
2022-08-19T08:10:56.905Z,92.90
2022-08-19T08:13:24.934Z,93.00
2022-08-19T08:15:52.936Z,93.00
2022-08-19T08:18:21.893Z,93.10
2022-08-19T08:20:55.064Z,92.60
2022-08-19T08:23:26.317Z,92.40
2022-08-19T08:25:55.975Z,92.20
2022-08-19T08:28:24.012Z,91.80
2022-08-19T08:30:51.529Z,91.70
2022-08-19T08:33:34.261Z,91.80
2022-08-19T08:36:04.797Z,91.60
2022-08-19T08:38:39.012Z,91.70
2022-08-19T08:41:31.465Z,91.60
2022-08-19T08:43:59.718Z,91.30
2022-08-19T08:46:59.980Z,90.80
2022-08-19T08:49:52.448Z,90.60
2022-08-19T08:52:32.235Z,90.40
2022-08-19T08:55:02.355Z,90.80
2022-08-19T08:57:40.832Z,90.50
2022-08-19T09:00:31.199Z,90.90
2022-08-19T09:02:59.349Z,90.80
2022-08-19T09:05:41.564Z,90.80
2022-08-19T09:08:44.338Z,90.80
2022-08-19T09:11:17.191Z,90.70
2022-08-19T09:14:49.867Z,90.90
2022-08-19T09:17:19.591Z,90.80
2022-08-19T09:19:52.653Z,90.60
2022-08-19T09:22:25.701Z,90.50
2022-08-19T09:24:54.105Z,90.40
2022-08-19T09:27:22.310Z,90.40
2022-08-19T09:30:15.878Z,90.60
2022-08-19T09:32:44.053Z,90.70
2022-08-19T09:35:18.093Z,90.70
2022-08-19T09:37:45.300Z,90.60
2022-08-19T09:40:13.360Z,90.40
2022-08-19T09:42:50.274Z,90.20
2022-08-19T09:45:22.807Z,90.30
2022-08-19T09:47:52.213Z,90.10
2022-08-19T09:50:21.800Z,89.90
2022-08-19T09:52:57.221Z,89.20
2022-08-19T09:55:31.840Z,88.60
2022-08-19T09:58:01.587Z,87.30
2022-08-19T10:00:28.693Z,86.70
2022-08-19T10:02:55.487Z,85.40
2022-08-19T10:05:42.701Z,85.60
2022-08-19T10:08:14.612Z,84.40
2022-08-19T10:10:46.773Z,83.90
2022-08-19T10:13:16.014Z,82.00
2022-08-19T10:15:47.090Z,80.50
2022-08-19T10:18:17.748Z,80.90
2022-08-19T10:20:46.640Z,80.90
2022-08-19T10:23:20.822Z,80.10
2022-08-19T10:25:48.754Z,79.30
2022-08-19T10:28:15.615Z,78.10
2022-08-19T10:30:57.963Z,78.30
2022-08-19T10:33:38.592Z,78.60
2022-08-19T10:36:19.921Z,78.20
2022-08-19T10:38:54.821Z,78.10
2022-08-19T10:41:30.033Z,78.20
2022-08-19T10:44:03.934Z,77.90
2022-08-19T10:46:35.034Z,79.00
2022-08-19T10:49:03.723Z,78.00
2022-08-19T10:51:49.657Z,76.60
2022-08-19T10:54:16.751Z,76.40
2022-08-19T10:56:53.142Z,77.40
2022-08-19T10:59:33.805Z,77.80
2022-08-19T11:02:10.574Z,77.70
2022-08-19T11:04:38.445Z,76.70
2022-08-19T11:07:06.886Z,75.50
2022-08-19T11:09:41.749Z,76.10
2022-08-19T11:12:10.655Z,76.40
2022-08-19T11:14:38.649Z,76.40
2022-08-19T11:17:06.654Z,76.50
2022-08-19T11:19:34.164Z,74.90
2022-08-19T11:22:05.375Z,73.40
2022-08-19T11:24:32.817Z,72.90
2022-08-19T11:27:10.065Z,73.20
2022-08-19T11:29:39.539Z,72.90
2022-08-19T11:32:11.118Z,73.40
2022-08-19T11:34:38.155Z,73.00
2022-08-19T11:37:05.288Z,72.60
2022-08-19T11:39:33.539Z,71.20
2022-08-19T11:42:02.021Z,71.10
2022-08-19T11:44:31.192Z,69.60
2022-08-19T11:46:58.620Z,68.60
2022-08-19T11:49:37.130Z,69.00
2022-08-19T11:52:04.349Z,68.40
2022-08-19T11:54:31.868Z,68.70
2022-08-19T11:56:58.654Z,68.50
2022-08-19T11:59:27.740Z,68.00
2022-08-19T12:01:54.492Z,67.80
2022-08-19T12:04:21.547Z,67.90
2022-08-19T12:06:48.425Z,67.90
2022-08-19T12:09:16.451Z,67.40
2022-08-19T12:11:43.219Z,67.30
2022-08-19T12:14:14.170Z,66.90
2022-08-19T12:16:51.473Z,67.50
2022-08-19T12:19:26.299Z,67.40
2022-08-19T12:21:56.420Z,67.50
2022-08-19T12:24:25.162Z,66.90
2022-08-19T12:26:52.472Z,67.10
2022-08-19T12:29:23.728Z,67.70
2022-08-19T12:31:51.333Z,67.50
2022-08-19T12:34:18.379Z,67.40
2022-08-19T12:36:45.249Z,67.50
2022-08-19T12:39:12.101Z,68.40
2022-08-19T12:41:45.095Z,68.70
2022-08-19T12:44:21.400Z,69.20
2022-08-19T12:46:57.558Z,69.30
2022-08-19T12:49:52.270Z,69.30
2022-08-19T12:52:16.677Z,69.60
2022-08-19T12:54:55.330Z,69.40
2022-08-19T12:57:31.573Z,68.60
2022-08-19T13:00:01.924Z,68.00
2022-08-19T13:02:33.160Z,67.60
2022-08-19T13:05:09.446Z,67.40
2022-08-19T13:07:40.167Z,67.50
2022-08-19T13:10:09.585Z,67.50
2022-08-19T13:12:36.818Z,67.50
2022-08-19T13:15:11.087Z,68.20
2022-08-19T13:17:39.527Z,68.70
2022-08-19T13:20:09.153Z,68.80
2022-08-19T13:22:37.121Z,68.50
2022-08-19T13:25:06.279Z,68.30
2022-08-19T13:27:33.649Z,68.40
2022-08-19T13:30:20.277Z,68.70
2022-08-19T13:33:07.902Z,69.20
2022-08-19T13:35:35.183Z,69.20
2022-08-19T13:38:11.797Z,69.50
2022-08-19T13:40:41.170Z,69.70
2022-08-19T13:43:17.746Z,69.70
2022-08-19T13:45:51.255Z,70.10
2022-08-19T13:48:18.393Z,70.50
2022-08-19T13:50:47.808Z,70.40
2022-08-19T13:53:15.814Z,70.50
2022-08-19T13:55:44.393Z,70.30
2022-08-19T13:58:12.378Z,70.50
2022-08-19T14:01:00.395Z,70.00
2022-08-19T14:03:28.915Z,69.80
2022-08-19T14:05:56.306Z,69.90
2022-08-19T14:08:23.680Z,69.30
2022-08-19T14:10:51.085Z,68.30
2022-08-19T14:13:22.134Z,67.80
2022-08-19T14:15:53.267Z,67.10
2022-08-19T14:18:20.205Z,67.40
2022-08-19T14:20:47.079Z,67.70
2022-08-19T14:23:14.587Z,68.70
2022-08-19T14:25:43.573Z,68.80
2022-08-19T14:28:10.958Z,69.20
2022-08-19T14:30:38.866Z,69.20
2022-08-19T14:33:08.147Z,69.40
2022-08-19T14:35:35.649Z,69.40
2022-08-19T14:38:06.488Z,70.00
2022-08-19T14:40:33.457Z,69.90
2022-08-19T14:43:04.684Z,69.90
2022-08-19T14:45:34.025Z,69.70
2022-08-19T14:48:01.283Z,69.20
2022-08-19T14:50:29.352Z,68.70
2022-08-19T14:53:09.339Z,68.00
2022-08-19T14:55:42.829Z,67.80
2022-08-19T14:58:09.919Z,68.00
2022-08-19T15:00:58.296Z,67.50
2022-08-19T15:03:25.213Z,66.90
2022-08-19T15:05:52.000Z,66.70
2022-08-19T15:08:18.865Z,65.50
2022-08-19T15:10:47.417Z,65.00
2022-08-19T15:13:14.155Z,65.20
2022-08-19T15:15:40.866Z,64.90
2022-08-19T15:18:07.614Z,65.00
2022-08-19T15:20:34.397Z,64.30
2022-08-19T15:23:01.632Z,63.70
2022-08-19T15:25:29.388Z,62.30
2022-08-19T15:27:56.358Z,61.90
2022-08-19T15:30:25.941Z,62.40
2022-08-19T15:32:55.704Z,62.60
2022-08-19T15:35:24.138Z,62.10
2022-08-19T15:37:52.523Z,62.00
2022-08-19T15:40:20.823Z,61.40
2022-08-19T15:42:49.732Z,61.90
2022-08-19T15:45:18.591Z,62.30
2022-08-19T15:47:45.498Z,63.00
2022-08-19T15:50:23.699Z,62.40
2022-08-19T15:52:56.785Z,62.10
2022-08-19T15:55:32.615Z,62.70
2022-08-19T15:58:29.729Z,61.70
2022-08-19T16:01:21.173Z,61.50
2022-08-19T16:04:11.156Z,61.10
2022-08-19T16:06:54.264Z,61.40
2022-08-19T16:09:27.236Z,61.70
2022-08-19T16:11:57.093Z,62.40
2022-08-19T16:14:28.724Z,62.40
2022-08-19T16:16:56.752Z,62.40
2022-08-19T16:19:24.578Z,62.00
2022-08-19T16:21:53.935Z,62.30
2022-08-19T16:24:23.733Z,62.10
2022-08-19T16:26:50.533Z,62.10
2022-08-19T16:29:21.992Z,62.20
2022-08-19T16:32:09.888Z,62.30
2022-08-19T16:34:38.093Z,62.30
2022-08-19T16:37:05.065Z,62.40
2022-08-19T16:39:32.245Z,61.80
2022-08-19T16:41:59.325Z,61.60
2022-08-19T16:44:29.857Z,61.80
2022-08-19T16:46:59.497Z,60.90
2022-08-19T16:49:54.191Z,60.80
2022-08-19T16:52:16.102Z,60.60
2022-08-19T16:54:43.561Z,60.10
2022-08-19T16:57:12.075Z,60.20
2022-08-19T16:59:48.314Z,59.50
2022-08-19T17:02:17.440Z,59.70
2022-08-19T17:04:44.216Z,59.90
2022-08-19T17:07:22.751Z,59.40
2022-08-19T17:09:50.496Z,59.20
2022-08-19T17:12:17.527Z,59.20
2022-08-19T17:14:46.019Z,59.50
2022-08-19T17:17:12.978Z,59.50
2022-08-19T17:19:42.148Z,59.50
2022-08-19T17:22:10.196Z,59.80
2022-08-19T17:24:42.569Z,59.70
2022-08-19T17:27:09.382Z,59.60
2022-08-19T17:29:36.118Z,59.70
2022-08-19T17:32:03.123Z,59.90
2022-08-19T17:34:30.379Z,60.00
2022-08-19T17:36:57.176Z,60.40
2022-08-19T17:39:25.297Z,60.50
2022-08-19T17:41:53.346Z,60.90
2022-08-19T17:44:20.049Z,61.10
2022-08-19T17:46:46.898Z,61.00
2022-08-19T17:49:14.381Z,61.80
2022-08-19T17:51:45.110Z,62.60
2022-08-19T17:54:18.778Z,63.10
2022-08-19T17:56:46.330Z,64.50
2022-08-19T17:59:14.524Z,64.20
2022-08-19T18:01:53.530Z,64.60
2022-08-19T18:04:23.041Z,65.00
2022-08-19T18:06:53.283Z,65.10
2022-08-19T18:09:41.890Z,65.50
2022-08-19T18:12:13.543Z,65.60
2022-08-19T18:14:41.273Z,65.70
2022-08-19T18:17:17.181Z,65.80
2022-08-19T18:19:44.884Z,66.00
2022-08-19T18:22:22.391Z,66.00
2022-08-19T18:24:49.192Z,66.10
2022-08-19T18:27:16.092Z,66.00
2022-08-19T18:29:43.332Z,66.10
2022-08-19T18:32:13.357Z,66.20
2022-08-19T18:34:41.850Z,66.80
2022-08-19T18:37:08.728Z,67.30
2022-08-19T18:39:53.950Z,68.10
2022-08-19T18:42:39.426Z,69.60
2022-08-19T18:45:25.206Z,71.90
2022-08-19T18:48:26.814Z,74.10
2022-08-19T18:50:56.613Z,75.00
2022-08-19T18:53:23.657Z,75.80
2022-08-19T18:55:53.785Z,76.90
2022-08-19T18:58:26.470Z,77.20
2022-08-19T19:00:55.815Z,78.70
2022-08-19T19:03:24.329Z,78.10
2022-08-19T19:05:52.688Z,78.10
2022-08-19T19:08:19.658Z,77.90
2022-08-19T19:10:47.653Z,78.20
2022-08-19T19:13:17.799Z,78.20
2022-08-19T19:15:44.656Z,77.80
2022-08-19T19:18:13.422Z,77.40
2022-08-19T19:20:40.896Z,77.20
2022-08-19T19:23:08.347Z,76.90
2022-08-19T19:25:50.609Z,76.60
2022-08-19T19:28:25.146Z,76.30
2022-08-19T19:30:53.835Z,76.10
2022-08-19T19:33:20.635Z,75.90
2022-08-19T19:35:47.503Z,75.60
2022-08-19T19:38:14.584Z,75.40
2022-08-19T19:40:41.302Z,75.40
2022-08-19T19:43:08.314Z,75.40
2022-08-19T19:45:35.357Z,75.10
2022-08-19T19:48:02.156Z,75.00
2022-08-19T19:50:30.206Z,74.70
2022-08-19T19:52:57.851Z,74.50
2022-08-19T19:55:26.389Z,74.10
2022-08-19T19:57:54.101Z,73.80
2022-08-19T20:00:21.638Z,73.60
2022-08-19T20:02:50.645Z,73.50
2022-08-19T20:05:21.061Z,73.40
2022-08-19T20:08:06.456Z,73.20
2022-08-19T20:10:33.500Z,73.00
2022-08-19T20:13:04.911Z,73.00
2022-08-19T20:15:32.203Z,72.90
2022-08-19T20:18:00.856Z,72.80
2022-08-19T20:20:27.969Z,72.80
2022-08-19T20:22:55.134Z,72.80
2022-08-19T20:25:22.100Z,73.00
2022-08-19T20:27:49.478Z,73.30
2022-08-19T20:30:20.146Z,73.60
2022-08-19T20:32:47.993Z,73.80
2022-08-19T20:35:16.386Z,73.90
2022-08-19T20:37:43.283Z,74.00
2022-08-19T20:40:11.291Z,74.30
2022-08-19T20:42:40.565Z,74.60
2022-08-19T20:45:21.543Z,74.80
2022-08-19T20:47:59.313Z,75.30
2022-08-19T20:50:26.187Z,75.50
2022-08-19T20:52:56.794Z,75.90
2022-08-19T20:55:23.711Z,76.00
2022-08-19T20:57:51.540Z,76.30
2022-08-19T21:00:18.916Z,76.50
2022-08-19T21:02:46.867Z,77.00
2022-08-19T21:05:13.828Z,77.20
2022-08-19T21:07:40.649Z,77.50
2022-08-19T21:10:07.890Z,77.90
2022-08-19T21:12:34.791Z,78.10
2022-08-19T21:15:01.568Z,78.40
2022-08-19T21:17:28.373Z,78.80
2022-08-19T21:19:55.356Z,78.50
2022-08-19T21:22:22.173Z,78.60
2022-08-19T21:24:48.930Z,78.70
2022-08-19T21:27:15.718Z,78.70
2022-08-19T21:29:43.024Z,78.70
2022-08-19T21:32:13.980Z,78.90
2022-08-19T21:34:43.841Z,79.10
2022-08-19T21:37:24.747Z,79.20
2022-08-19T21:39:53.248Z,79.30
2022-08-19T21:42:20.403Z,79.40
2022-08-19T21:44:47.310Z,79.80
2022-08-19T21:47:14.038Z,79.90
2022-08-19T21:49:40.928Z,80.30
2022-08-19T21:52:08.230Z,80.40
2022-08-19T21:54:38.206Z,81.00
2022-08-19T21:57:10.676Z,81.00
2022-08-19T21:59:43.471Z,80.90
2022-08-19T22:02:20.045Z,81.20
2022-08-19T22:04:48.943Z,81.30
2022-08-19T22:07:15.808Z,81.70
2022-08-19T22:09:47.959Z,81.90
2022-08-19T22:12:27.690Z,82.20
2022-08-19T22:14:55.236Z,82.10
2022-08-19T22:17:22.903Z,82.30
2022-08-19T22:19:50.937Z,82.50
2022-08-19T22:22:26.562Z,82.80
2022-08-19T22:24:55.400Z,83.20
2022-08-19T22:27:22.292Z,83.10
2022-08-19T22:29:52.662Z,83.40
2022-08-19T22:32:28.318Z,83.70
2022-08-19T22:34:57.876Z,83.80
2022-08-19T22:37:25.006Z,84.00
2022-08-19T22:39:51.796Z,84.30
2022-08-19T22:42:20.223Z,84.30
2022-08-19T22:44:46.933Z,84.10
2022-08-19T22:47:13.739Z,84.50
2022-08-19T22:49:40.610Z,84.60
2022-08-19T22:52:19.319Z,84.80
2022-08-19T22:54:58.736Z,85.20
2022-08-19T22:57:25.518Z,85.80
2022-08-19T22:59:53.040Z,85.50
2022-08-19T23:02:26.857Z,84.90
2022-08-19T23:04:54.453Z,85.50
2022-08-19T23:07:23.780Z,85.40
2022-08-19T23:09:50.967Z,85.60
2022-08-19T23:12:30.628Z,85.80
2022-08-19T23:15:05.690Z,86.20
2022-08-19T23:17:32.399Z,86.30
2022-08-19T23:19:59.877Z,86.50
2022-08-19T23:22:27.043Z,86.80
2022-08-19T23:24:56.183Z,86.80
2022-08-19T23:27:43.515Z,87.20
2022-08-19T23:30:26.558Z,87.10
2022-08-19T23:32:58.957Z,87.30
2022-08-19T23:35:26.597Z,87.60
2022-08-19T23:37:53.528Z,87.90
2022-08-19T23:40:21.845Z,88.30
2022-08-19T23:42:51.587Z,87.80
2022-08-19T23:45:23.930Z,88.10
2022-08-19T23:47:53.248Z,88.10
2022-08-19T23:50:21.267Z,88.00
2022-08-19T23:52:53.645Z,87.90
2022-08-19T23:55:23.644Z,87.80
2022-08-19T23:57:50.742Z,88.20
